Time;durP1;ratioP1;P1;durP2;ratioP2;P2;SDS_P1;SDS_P2;PMS_P1;PMS_P2;Temp;Humidity;BMP_temperature;BMP_pressure;BME280_temperature;BME280_humidity;BME280_pressure;Samples;Min_cycle;Max_cycle;Signal;HPM_P1;HPM_P2
2021/04/07 00:00:20;;;;;;;6.37;4.57;;;;;;;2.34;68.03;98380.44;5063914;28;42084;-72
2021/04/07 00:02:47;;;;;;;6.07;4.63;;;;;;;2.31;67.89;98393.63;5047020;28;40776;-73
2021/04/07 00:05:16;;;;;;;6.27;5.00;;;;;;;2.24;68.04;98389.50;5046912;28;41741;-73
2021/04/07 00:07:44;;;;;;;5.73;4.80;;;;;;;2.17;68.01;98391.50;5064104;28;43331;-72
2021/04/07 00:10:13;;;;;;;5.20;4.40;;;;;;;2.13;68.35;98394.28;5047912;28;42988;-73
2021/04/07 00:12:41;;;;;;;4.70;4.30;;;;;;;2.16;68.16;98391.56;5048484;28;39894;-72
2021/04/07 00:15:11;;;;;;;4.70;4.20;;;;;;;2.19;68.01;98390.59;5063632;28;40937;-73
2021/04/07 00:17:37;;;;;;;5.30;4.80;;;;;;;2.21;68.09;98400.09;5048394;28;43692;-73
2021/04/07 00:20:08;;;;;;;5.17;4.67;;;;;;;2.22;68.22;98393.13;5062720;28;42690;-73
2021/04/07 00:22:35;;;;;;;5.70;4.63;;;;;;;2.25;67.88;98398.19;5047600;28;40892;-73
2021/04/07 00:25:04;;;;;;;5.47;4.83;;;;;;;2.28;67.71;98392.88;5046855;28;41175;-71
2021/04/07 00:27:31;;;;;;;5.80;4.83;;;;;;;2.31;67.41;98393.63;5063618;28;42125;-71
2021/04/07 00:29:58;;;;;;;5.30;4.80;;;;;;;2.22;67.15;98377.44;5047781;28;43061;-72
2021/04/07 00:32:25;;;;;;;5.77;4.70;;;;;;;2.38;67.28;98405.53;5047771;28;39959;-73
2021/04/07 00:34:52;;;;;;;6.00;4.77;;;;;;;2.36;67.33;98396.91;5047845;28;41680;-74
2021/04/07 00:37:18;;;;;;;5.57;4.73;;;;;;;2.34;66.92;98398.75;5047508;28;42929;-72
2021/04/07 00:39:45;;;;;;;5.80;5.20;;;;;;;2.30;67.30;98386.69;5047298;28;42325;-71
2021/04/07 00:42:14;;;;;;;6.43;5.63;;;;;;;2.43;67.10;98406.22;5047188;28;39465;-72
2021/04/07 00:44:41;;;;;;;6.07;4.73;;;;;;;2.44;67.20;98414.94;5045291;28;42458;-73
2021/04/07 00:47:07;;;;;;;7.77;4.80;;;;;;;2.42;67.61;98404.53;5046649;28;42721;-74
2021/04/07 00:49:34;;;;;;;7.80;5.37;;;;;;;2.37;67.52;98401.22;5061675;28;42705;-73
2021/04/07 00:52:02;;;;;;;7.73;5.37;;;;;;;2.38;67.58;98412.53;5045473;28;39171;-73
2021/04/07 00:54:29;;;;;;;7.23;5.30;;;;;;;2.37;67.72;98416.91;5062553;28;40881;-74
2021/04/07 00:56:56;;;;;;;5.07;4.57;;;;;;;2.31;67.64;98409.31;5047590;28;43558;-73
2021/04/07 00:59:24;;;;;;;6.67;5.37;;;;;;;2.32;67.41;98418.00;5047230;28;42927;-73
2021/04/07 01:01:51;;;;;;;6.90;5.23;;;;;;;2.33;67.62;98420.56;5047244;28;40863;-73
2021/04/07 01:04:20;;;;;;;6.27;5.00;;;;;;;2.33;67.74;98422.31;5063729;28;41388;-73
2021/04/07 01:06:48;;;;;;;6.03;4.93;;;;;;;2.34;67.44;98426.63;5046889;28;42776;-73
2021/04/07 01:09:15;;;;;;;5.30;4.47;;;;;;;2.29;67.44;98424.16;5049253;28;42403;-73
2021/04/07 01:11:41;;;;;;;6.70;5.43;;;;;;;2.20;67.57;98429.72;5066921;28;41435;-73
2021/04/07 01:14:09;;;;;;;6.67;5.03;;;;;;;2.13;67.67;98417.78;5050993;28;41749;-73
2021/04/07 01:16:37;;;;;;;7.17;5.47;;;;;;;2.00;67.73;98426.94;5066093;28;43737;-73
2021/04/07 01:19:08;;;;;;;6.40;5.13;;;;;;;2.01;67.38;98439.09;5049081;28;42616;-73
2021/04/07 01:21:36;;;;;;;7.40;4.93;;;;;;;1.98;67.30;98429.63;5051027;28;40075;-73
2021/04/07 01:24:04;;;;;;;6.30;5.30;;;;;;;2.05;67.36;98435.50;5050423;28;42451;-72
2021/04/07 01:26:31;;;;;;;6.37;5.47;;;;;;;2.10;67.05;98438.81;5066503;28;42408;-72
2021/04/07 01:28:58;;;;;;;6.50;5.13;;;;;;;2.14;67.10;98436.00;5049132;28;42995;-72
2021/04/07 01:31:26;;;;;;;7.67;5.67;;;;;;;2.16;66.77;98438.56;5049810;28;40072;-72
2021/04/07 01:33:53;;;;;;;9.37;5.87;;;;;;;2.17;66.31;98442.91;5050164;28;41850;-72
2021/04/07 01:36:22;;;;;;;6.70;5.53;;;;;;;2.21;66.26;98459.31;5048210;28;42231;-73
2021/04/07 01:38:49;;;;;;;5.90;5.30;;;;;;;2.22;65.82;98463.66;5049946;28;42284;-72
2021/04/07 01:41:18;;;;;;;5.87;5.23;;;;;;;2.23;66.05;98453.09;5050679;28;40035;-73
2021/04/07 01:43:46;;;;;;;7.73;5.27;;;;;;;2.25;65.74;98463.50;5050082;28;42538;-73
2021/04/07 01:46:14;;;;;;;7.73;5.13;;;;;;;2.24;65.65;98461.81;5066188;28;42265;-73
2021/04/07 01:48:41;;;;;;;6.00;5.47;;;;;;;2.17;65.62;98466.41;5050617;28;43037;-72
2021/04/07 01:51:10;;;;;;;6.00;4.63;;;;;;;2.07;65.71;98465.03;5066199;28;39465;-73
2021/04/07 01:53:37;;;;;;;7.77;5.13;;;;;;;2.00;65.76;98473.97;5050588;28;42662;-73
2021/04/07 01:56:04;;;;;;;7.20;5.43;;;;;;;1.97;65.58;98485.38;5050219;28;43076;-72
2021/04/07 01:58:32;;;;;;;7.87;6.03;;;;;;;1.88;65.57;98454.34;5050256;28;42248;-73
2021/04/07 02:01:00;;;;;;;8.40;5.23;;;;;;;2.03;65.50;98490.38;5050029;28;41931;-73
2021/04/07 02:03:26;;;;;;;6.57;5.23;;;;;;;2.04;65.46;98483.41;5050568;28;41850;-73
2021/04/07 02:05:53;;;;;;;5.97;5.30;;;;;;;2.01;65.92;98480.88;5049665;28;43556;-72
2021/04/07 02:08:20;;;;;;;6.83;5.70;;;;;;;1.96;65.75;98488.03;5049576;28;43135;-73
2021/04/07 02:10:47;;;;;;;7.73;5.60;;;;;;;1.95;65.84;98486.34;5065110;28;40189;-73
2021/04/07 02:13:13;;;;;;;8.80;6.30;;;;;;;1.99;65.82;98498.38;5050160;28;42593;-73
2021/04/07 02:15:41;;;;;;;7.27;5.53;;;;;;;1.99;65.67;98500.97;5048876;28;43277;-72
2021/04/07 02:18:08;;;;;;;7.17;4.87;;;;;;;1.93;65.79;98485.53;5049708;28;42381;-72
2021/04/07 02:20:34;;;;;;;7.30;5.50;;;;;;;1.99;65.72;98495.75;5048758;28;39491;-73
2021/04/07 02:23:01;;;;;;;8.33;5.40;;;;;;;1.99;65.73;98499.22;5049721;28;42257;-73
2021/04/07 02:25:28;;;;;;;9.07;6.03;;;;;;;2.00;65.96;98500.06;5048869;28;42501;-73
2021/04/07 02:27:56;;;;;;;7.17;5.63;;;;;;;1.86;65.97;98476.19;5049262;28;43155;-73
2021/04/07 02:30:23;;;;;;;6.43;5.70;;;;;;;1.95;65.61;98508.06;5064864;28;39477;-72
2021/04/07 02:32:51;;;;;;;6.63;5.67;;;;;;;1.87;65.84;98507.47;5048042;28;42122;-72
2021/04/07 02:35:18;;;;;;;7.03;5.13;;;;;;;1.85;65.74;98524.09;5049285;28;43693;-73
2021/04/07 02:37:45;;;;;;;7.37;5.20;;;;;;;1.82;66.18;98518.97;5049281;28;42320;-72
2021/04/07 02:40:13;;;;;;;6.13;5.33;;;;;;;1.80;66.40;98525.09;5048597;28;39628;-72
2021/04/07 02:42:39;;;;;;;6.37;5.70;;;;;;;1.80;66.29;98522.50;5049814;28;41758;-73
2021/04/07 02:45:08;;;;;;;7.77;6.10;;;;;;;1.85;66.00;98531.94;5049526;28;44145;-73
2021/04/07 02:47:34;;;;;;;6.27;5.60;;;;;;;1.85;66.14;98526.72;5048722;28;43205;-72
2021/04/07 02:50:02;;;;;;;7.00;5.30;;;;;;;1.87;66.24;98523.13;5048043;28;40353;-73
2021/04/07 02:52:29;;;;;;;5.80;5.20;;;;;;;1.90;66.09;98535.22;5048903;28;42030;-73
2021/04/07 02:54:56;;;;;;;5.87;5.23;;;;;;;1.87;65.99;98530.09;5048492;28;43526;-73
2021/04/07 02:57:23;;;;;;;8.00;6.10;;;;;;;1.87;65.84;98536.19;5049251;28;42354;-73
2021/04/07 02:59:50;;;;;;;7.17;5.80;;;;;;;1.85;65.61;98534.56;5048406;28;41497;-72
2021/04/07 03:02:17;;;;;;;5.77;5.20;;;;;;;1.88;65.77;98535.28;5048914;28;41768;-72
2021/04/07 03:04:44;;;;;;;9.33;5.20;;;;;;;1.92;65.75;98525.59;5048402;28;43569;-72
2021/04/07 03:07:12;;;;;;;8.23;5.23;;;;;;;1.94;65.83;98534.25;5048620;28;42311;-73
2021/04/07 03:09:38;;;;;;;5.70;5.10;;;;;;;1.95;65.66;98538.56;5049169;28;41256;-72
2021/04/07 03:12:07;;;;;;;6.60;5.23;;;;;;;1.94;65.04;98542.94;5048256;28;42610;-72
2021/04/07 03:14:34;;;;;;;6.67;5.30;;;;;;;1.95;64.92;98549.00;5064690;28;42332;-72
2021/04/07 03:17:00;;;;;;;5.83;5.20;;;;;;;1.95;65.25;98539.41;5048492;28;43230;-73
2021/04/07 03:19:27;;;;;;;4.73;4.30;;;;;;;2.00;64.85;98547.06;5048672;28;40007;-72
2021/04/07 03:21:54;;;;;;;7.67;5.13;;;;;;;1.99;64.54;98547.97;5047277;28;41249;-73
2021/04/07 03:24:22;;;;;;;8.73;5.07;;;;;;;1.97;64.55;98552.44;5048203;28;43252;-72
2021/04/07 03:26:48;;;;;;;7.07;4.63;;;;;;;1.91;64.42;98550.00;5064378;28;42642;-73
2021/04/07 03:29:15;;;;;;;6.00;4.63;;;;;;;1.88;64.41;98557.91;5048202;28;40110;-72
2021/04/07 03:31:42;;;;;;;5.13;4.10;;;;;;;1.81;64.55;98557.28;5048552;28;42926;-72
2021/04/07 03:34:09;;;;;;;6.30;4.33;;;;;;;1.74;64.88;98554.00;5048338;28;43772;-72
2021/04/07 03:36:36;;;;;;;6.00;4.60;;;;;;;1.68;65.23;98551.59;5047334;28;42501;-73
2021/04/07 03:39:04;;;;;;;8.10;4.70;;;;;;;1.62;65.13;98549.16;5048515;28;41721;-72
2021/04/07 03:41:32;;;;;;;7.73;4.00;;;;;;;1.66;64.89;98550.78;5047615;28;41329;-73
2021/04/07 03:43:58;;;;;;;5.60;4.73;;;;;;;1.73;64.61;98570.56;5048424;28;44120;-72
2021/04/07 03:46:25;;;;;;;5.43;4.57;;;;;;;1.73;64.58;98570.56;5047794;28;42952;-73
2021/04/07 03:48:52;;;;;;;5.77;4.33;;;;;;;1.71;64.63;98568.91;5064087;28;39529;-74
2021/04/07 03:51:19;;;;;;;5.10;4.20;;;;;;;1.79;64.83;98569.53;5048069;28;41938;-72
2021/04/07 03:53:46;;;;;;;6.33;4.50;;;;;;;1.82;64.63;98571.19;5063679;28;42236;-72
2021/04/07 03:56:13;;;;;;;6.53;4.97;;;;;;;1.88;64.17;98579.66;5048006;28;42252;-71
2021/04/07 03:58:41;;;;;;;6.37;4.07;;;;;;;1.91;64.17;98578.72;5048562;28;40021;-72
2021/04/07 04:01:08;;;;;;;5.00;4.00;;;;;;;1.91;63.59;98583.94;5048243;28;42500;-73
2021/04/07 04:03:35;;;;;;;5.20;4.30;;;;;;;1.87;63.39;98583.19;5063904;28;42239;-73
2021/04/07 04:06:02;;;;;;;6.63;4.00;;;;;;;1.85;63.25;98589.38;5046998;28;42037;-75
2021/04/07 04:08:28;;;;;;;4.77;3.53;;;;;;;1.85;63.56;98590.22;5048813;28;40101;-73
2021/04/07 04:10:56;;;;;;;5.73;4.13;;;;;;;1.82;63.82;98589.47;5047459;28;41981;-74
2021/04/07 04:13:23;;;;;;;8.13;4.30;;;;;;;1.84;63.60;98595.50;5047759;28;44410;-71
2021/04/07 04:15:51;;;;;;;5.23;4.00;;;;;;;1.86;63.54;98596.28;5046696;28;42772;-74
2021/04/07 04:18:18;;;;;;;4.77;3.97;;;;;;;1.87;63.62;98592.75;5047704;28;39708;-72
2021/04/07 04:20:45;;;;;;;5.43;4.30;;;;;;;1.91;64.09;98599.59;5046898;28;42322;-73
2021/04/07 04:23:11;;;;;;;6.63;4.27;;;;;;;1.98;64.01;98611.59;5048247;28;42911;-73
2021/04/07 04:25:39;;;;;;;4.87;3.90;;;;;;;2.00;64.23;98609.75;5046593;28;41812;-73
2021/04/07 04:28:05;;;;;;;6.53;4.37;;;;;;;1.98;64.67;98619.41;5047176;28;40935;-74
2021/04/07 04:30:32;;;;;;;5.97;4.67;;;;;;;1.92;64.47;98617.84;5046706;28;42344;-74
2021/04/07 04:33:00;;;;;;;7.63;4.60;;;;;;;1.88;64.85;98616.22;5046314;28;42565;-74
2021/04/07 04:35:27;;;;;;;6.00;5.00;;;;;;;1.86;65.00;98625.84;5047898;28;43613;-73
2021/04/07 04:37:54;;;;;;;5.87;4.40;;;;;;;1.72;65.24;98600.19;5050586;28;40756;-73
2021/04/07 04:40:21;;;;;;;6.83;4.80;;;;;;;1.86;65.50;98625.84;5056035;28;42572;-73
2021/04/07 04:42:49;;;;;;;7.03;4.53;;;;;;;1.82;65.34;98637.31;5049859;28;43516;-74
2021/04/07 04:45:16;;;;;;;6.50;5.00;;;;;;;1.76;65.82;98638.34;5050307;28;43239;-73
2021/04/07 04:47:43;;;;;;;5.77;4.67;;;;;;;1.76;65.59;98645.31;5051469;28;39975;-73
2021/04/07 04:50:13;;;;;;;7.53;5.57;;;;;;;1.80;65.61;98647.81;5065455;28;42061;-74
2021/04/07 04:52:40;;;;;;;7.20;4.50;;;;;;;1.83;65.57;98653.84;5050377;28;42813;-74
2021/04/07 04:55:09;;;;;;;7.73;5.20;;;;;;;1.84;65.50;98655.53;5050771;28;43265;-73
2021/04/07 04:57:37;;;;;;;11.07;5.17;;;;;;;1.89;65.54;98658.84;5031412;28;39914;-74
2021/04/07 05:00:06;;;;;;;5.77;4.57;;;;;;;1.90;65.54;98663.16;5031288;28;42802;-71
2021/04/07 05:02:32;;;;;;;8.20;5.53;;;;;;;1.87;65.31;98655.44;5030660;28;42919;-71
2021/04/07 05:04:59;;;;;;;5.40;4.90;;;;;;;1.84;65.39;98655.53;5029315;28;42214;-71
2021/04/07 05:07:27;;;;;;;6.00;5.20;;;;;;;1.91;65.23;98662.28;5031780;28;40026;-71
2021/04/07 05:09:54;;;;;;;5.90;4.37;;;;;;;1.93;65.29;98679.59;5030577;28;41811;-73
2021/04/07 05:12:20;;;;;;;6.80;5.37;;;;;;;1.90;64.93;98681.44;5044114;28;43659;-71
2021/04/07 05:14:50;;;;;;;6.80;4.83;;;;;;;1.85;64.93;98679.00;5049076;28;43210;-71
2021/04/07 05:17:17;;;;;;;9.83;5.87;;;;;;;1.71;65.10;98682.03;5050175;28;42303;-74
2021/04/07 05:19:44;;;;;;;6.93;5.57;;;;;;;1.68;65.20;98692.53;5050437;28;41977;-71
2021/04/07 05:22:11;;;;;;;7.40;5.60;;;;;;;1.58;65.98;98691.09;5066116;28;43384;-73
2021/04/07 05:24:38;;;;;;;6.63;5.47;;;;;;;1.52;66.12;98696.50;5050029;28;41967;-72
2021/04/07 05:27:06;;;;;;;10.13;5.57;;;;;;;1.44;66.41;98701.09;5048825;28;39567;-71
2021/04/07 05:29:33;;;;;;;8.20;5.53;;;;;;;1.41;66.54;98698.56;5049462;28;42468;-71
2021/04/07 05:32:00;;;;;;;6.40;5.33;;;;;;;1.42;66.53;98701.13;5050054;28;42781;-72
2021/04/07 05:34:26;;;;;;;8.43;5.17;;;;;;;1.52;66.36;98706.94;5049465;28;42706;-72
2021/04/07 05:36:54;;;;;;;7.77;5.20;;;;;;;1.56;66.21;98712.94;5050048;28;39989;-71
2021/04/07 05:39:21;;;;;;;8.80;5.63;;;;;;;1.55;66.26;98709.47;5050361;28;42392;-72
2021/04/07 05:41:49;;;;;;;7.20;5.13;;;;;;;1.58;66.23;98717.22;5065746;28;42209;-72
2021/04/07 05:44:16;;;;;;;9.87;6.77;;;;;;;1.63;66.15;98715.31;5049524;28;44569;-72
2021/04/07 05:46:43;;;;;;;9.27;5.83;;;;;;;1.72;65.81;98728.13;5050314;28;40122;-72
2021/04/07 05:49:10;;;;;;;9.00;6.17;;;;;;;1.89;65.57;98726.75;5047100;28;42218;-73
2021/04/07 05:51:37;;;;;;;8.50;5.73;;;;;;;2.04;65.47;98721.06;5048809;28;42926;-72
2021/04/07 05:54:03;;;;;;;7.90;5.90;;;;;;;2.29;65.22;98726.38;5047197;28;42418;-72
2021/04/07 05:56:30;;;;;;;10.37;6.00;;;;;;;2.57;64.57;98729.84;5047126;28;40419;-73
2021/04/07 05:58:58;;;;;;;8.73;6.40;;;;;;;2.85;63.83;98735.00;5048020;28;42587;-72
2021/04/07 06:01:25;;;;;;;14.03;5.93;;;;;;;2.99;63.25;98740.63;5044785;28;43801;-73
2021/04/07 06:03:52;;;;;;;7.93;6.57;;;;;;;3.06;62.74;98762.22;5046878;28;43075;-72
2021/04/07 06:06:20;;;;;;;8.63;5.77;;;;;;;3.02;62.52;98761.44;5042623;28;40542;-73
2021/04/07 06:08:48;;;;;;;10.13;6.00;;;;;;;3.08;62.38;98776.09;5042069;28;42644;-73
2021/04/07 06:11:16;;;;;;;10.13;5.83;;;;;;;3.11;61.94;98775.97;5044354;28;42420;-73
2021/04/07 06:13:43;;;;;;;9.10;5.77;;;;;;;3.16;61.57;98785.38;5056557;28;42494;-72
2021/04/07 06:16:12;;;;;;;9.47;6.37;;;;;;;3.25;61.51;98784.22;5053031;28;39912;-73
2021/04/07 06:18:39;;;;;;;9.13;6.30;;;;;;;3.37;61.24;98788.16;5057051;28;41619;-73
2021/04/07 06:21:06;;;;;;;8.27;5.43;;;;;;;3.46;60.96;98793.09;5055972;28;42972;-73
2021/04/07 06:23:32;;;;;;;7.93;5.47;;;;;;;3.58;60.45;98792.69;5055530;28;42454;-73
2021/04/07 06:25:59;;;;;;;7.43;5.00;;;;;;;3.62;59.64;98799.50;5046019;28;40877;-73
2021/04/07 06:28:26;;;;;;;8.10;5.10;;;;;;;3.68;59.00;98807.16;5039206;28;43004;-75
2021/04/07 06:30:53;;;;;;;9.67;4.97;;;;;;;3.69;58.62;98811.47;5039486;28;42769;-74
2021/04/07 06:33:23;;;;;;;9.67;5.17;;;;;;;3.70;59.04;98807.97;5043530;28;42361;-73
2021/04/07 06:35:52;;;;;;;6.77;5.37;;;;;;;3.71;58.53;98814.88;5041957;28;39297;-73
2021/04/07 06:38:19;;;;;;;9.37;5.10;;;;;;;3.75;58.30;98826.97;5038450;28;42212;-72
2021/04/07 06:40:47;;;;;;;7.27;4.77;;;;;;;3.78;57.69;98836.47;5023020;28;44188;-72
2021/04/07 06:43:15;;;;;;;8.20;4.90;;;;;;;3.84;58.03;98837.09;5061082;28;41762;-73
2021/04/07 06:45:45;;;;;;;5.57;4.53;;;;;;;3.87;57.27;98841.38;5044393;28;40793;-72
2021/04/07 06:48:13;;;;;;;9.47;4.90;;;;;;;3.98;57.47;98840.09;5049576;28;41460;-74
2021/04/07 06:50:42;;;;;;;8.87;4.87;;;;;;;4.03;56.91;98846.94;5030702;28;42341;-73
2021/04/07 06:53:10;;;;;;;6.07;4.47;;;;;;;4.02;56.56;98855.69;5042403;28;41913;-73
2021/04/07 06:55:39;;;;;;;7.97;4.80;;;;;;;4.20;56.33;98847.19;5042934;28;41606;-73
2021/04/07 06:58:07;;;;;;;9.93;4.20;;;;;;;4.38;55.47;98859.59;5044650;28;41681;-73
2021/04/07 07:00:35;;;;;;;12.83;4.37;;;;;;;4.58;55.64;98862.31;5043987;28;43491;-73
2021/04/07 07:03:03;;;;;;;5.30;3.97;;;;;;;4.70;54.59;98834.75;5044409;28;42458;-73
2021/04/07 07:05:31;;;;;;;10.10;4.10;;;;;;;5.15;54.39;98853.06;5040864;28;40839;-72
2021/04/07 07:08:03;;;;;;;6.53;3.43;;;;;;;5.61;52.66;98859.03;5042998;28;41594;-74
2021/04/07 07:10:35;;;;;;;7.87;3.57;;;;;;;5.96;51.95;98874.16;5043610;28;42303;-74
2021/04/07 07:13:03;;;;;;;8.90;3.33;;;;;;;6.35;51.38;98876.81;5044559;28;42140;-74
2021/04/07 07:15:30;;;;;;;7.47;3.03;;;;;;;6.96;48.94;98896.81;5043629;28;40046;-75
2021/04/07 07:17:57;;;;;;;8.17;3.77;;;;;;;8.07;47.70;98917.63;5044157;28;42373;-73
2021/04/07 07:20:28;;;;;;;5.83;2.80;;;;;;;8.77;45.77;98914.84;5042661;28;43050;-74
2021/04/07 07:22:55;;;;;;;4.23;2.63;;;;;;;8.59;45.71;98923.72;5041553;28;41970;-74
2021/04/07 07:25:24;;;;;;;8.53;2.60;;;;;;;8.37;45.39;98920.53;5044116;28;40014;-74
2021/04/07 07:27:57;;;;;;;5.07;2.43;;;;;;;8.18;45.49;98915.28;5044284;28;41526;-75
2021/04/07 07:30:33;;;;;;;6.23;2.60;;;;;;;7.97;45.43;98922.53;5042007;28;42629;-72
2021/04/07 07:33:00;;;;;;;6.20;2.60;;;;;;;7.65;45.43;98915.41;5029518;28;42735;-74
2021/04/07 07:35:27;;;;;;;7.23;2.77;;;;;;;7.38;46.86;98913.19;5042201;28;40493;-72
2021/04/07 07:38:00;;;;;;;4.03;2.27;;;;;;;7.06;47.79;98905.97;5044063;28;20236;-74
2021/04/07 07:40:28;;;;;;;4.10;2.03;;;;;;;6.75;47.44;98904.78;5043135;28;42747;-74
2021/04/07 07:42:55;;;;;;;6.83;2.37;;;;;;;6.70;48.32;98909.41;5043313;28;43208;-73
2021/04/07 07:45:28;;;;;;;5.40;2.83;;;;;;;6.69;47.60;98910.31;5044014;28;41140;-74
2021/04/07 07:48:09;;;;;;;9.33;2.83;;;;;;;6.78;48.26;98907.28;5044071;28;42368;-73
2021/04/07 07:50:39;;;;;;;4.47;2.30;;;;;;;6.87;47.60;98915.66;5043483;28;43565;-73
2021/04/07 07:53:16;;;;;;;6.50;2.60;;;;;;;7.14;47.46;98911.75;5051937;28;42259;-73
2021/04/07 07:55:45;;;;;;;5.67;2.50;;;;;;;8.01;45.95;98929.38;5039821;28;39779;-74
2021/04/07 07:58:12;;;;;;;4.77;2.67;;;;;;;8.18;44.60;98946.94;5044310;28;44192;-74
2021/04/07 08:00:39;;;;;;;8.13;2.53;;;;;;;8.00;44.72;98938.22;5043395;28;42813;-74
2021/04/07 08:03:12;;;;;;;6.10;3.13;;;;;;;7.89;45.15;98940.53;5044622;28;43162;-72
2021/04/07 08:05:40;;;;;;;5.43;2.20;;;;;;;7.77;45.08;98941.16;5043995;28;39980;-73
2021/04/07 08:08:08;;;;;;;5.93;2.50;;;;;;;7.91;45.03;98936.06;5058992;28;42284;-74
2021/04/07 08:10:37;;;;;;;5.73;1.80;;;;;;;8.04;44.51;98944.16;5043483;28;43698;-75
2021/04/07 08:13:08;;;;;;;5.37;1.90;;;;;;;8.06;44.74;98948.44;5042615;28;43009;-74
2021/04/07 08:15:36;;;;;;;6.03;2.13;;;;;;;8.09;44.58;98948.28;5042609;28;39609;-74
2021/04/07 08:18:06;;;;;;;4.17;1.67;;;;;;;8.14;44.65;98954.19;5045450;28;41308;-72
2021/04/07 08:20:33;;;;;;;3.27;1.80;;;;;;;8.20;44.71;98943.31;5043840;28;42668;-75
2021/04/07 08:23:03;;;;;;;3.80;2.00;;;;;;;8.07;44.36;98960.69;5046256;28;43446;-73
2021/04/07 08:25:31;;;;;;;3.67;1.90;;;;;;;7.78;45.11;98953.41;5046913;28;40538;-72
2021/04/07 08:28:00;;;;;;;5.13;1.70;;;;;;;7.77;45.43;98946.44;5046610;28;42586;-71
2021/04/07 08:30:28;;;;;;;3.20;1.43;;;;;;;7.99;44.84;98954.97;5045208;28;42860;-75
2021/04/07 08:32:56;;;;;;;5.20;1.60;;;;;;;7.94;44.30;98960.47;5045481;28;42251;-73
2021/04/07 08:35:24;;;;;;;4.90;1.63;;;;;;;8.04;44.41;98954.72;5046249;28;40960;-73
2021/04/07 08:37:59;;;;;;;3.50;1.40;;;;;;;8.27;43.79;98963.19;5045776;28;41904;-75
2021/04/07 08:40:37;;;;;;;5.17;1.57;;;;;;;8.34;44.10;98970.81;5044839;28;42499;-74
2021/04/07 08:43:04;;;;;;;3.37;1.67;;;;;;;8.24;44.17;98965.13;5047022;28;42298;-73
2021/04/07 08:45:38;;;;;;;3.10;1.40;;;;;;;8.03;44.47;98967.06;5061437;28;40331;-72
2021/04/07 08:48:18;;;;;;;3.10;1.50;;;;;;;7.77;43.24;98968.38;5044411;28;41872;-73
2021/04/07 08:50:46;;;;;;;3.70;1.30;;;;;;;7.62;44.15;98960.34;5045887;28;42785;-73
2021/04/07 08:53:16;;;;;;;4.13;1.60;;;;;;;7.69;44.56;98956.47;5040504;28;43680;-73
2021/04/07 08:55:54;;;;;;;6.67;1.80;;;;;;;8.10;44.93;98959.69;5062328;28;39773;-72
2021/04/07 08:58:23;;;;;;;4.37;1.80;;;;;;;8.55;44.11;98962.63;5046448;28;41715;-71
2021/04/07 09:00:54;;;;;;;4.10;1.57;;;;;;;9.25;42.40;98979.13;5046121;28;42630;-71
2021/04/07 09:03:23;;;;;;;5.43;1.60;;;;;;;9.69;40.98;98995.97;5045960;28;43093;-73
2021/04/07 09:05:50;;;;;;;4.03;1.33;;;;;;;9.86;40.55;98996.81;5045416;28;40910;-73
2021/04/07 09:08:18;;;;;;;3.80;1.73;;;;;;;10.03;40.12;99009.91;5046619;28;42317;-73
2021/04/07 09:10:46;;;;;;;5.07;1.53;;;;;;;10.86;38.83;99014.69;5045845;28;43034;-73
2021/04/07 09:13:17;;;;;;;4.17;1.43;;;;;;;12.54;36.24;99023.25;5045336;28;42269;-73
2021/04/07 09:15:50;;;;;;;3.23;1.43;;;;;;;12.36;36.01;99024.53;5049124;28;39698;-75
2021/04/07 09:18:31;;;;;;;3.57;1.20;;;;;;;11.72;36.28;99021.59;5048893;28;41406;-74
2021/04/07 09:20:58;;;;;;;3.47;1.10;;;;;;;11.15;37.72;98999.63;5049869;28;42964;-73
2021/04/07 09:23:29;;;;;;;5.03;1.33;;;;;;;11.14;38.21;99009.38;5057877;28;41828;-73
2021/04/07 09:25:58;;;;;;;5.93;1.53;;;;;;;11.00;38.45;99019.16;5049428;28;40746;-73
2021/04/07 09:28:33;;;;;;;3.07;1.47;;;;;;;10.85;40.08;99010.34;5047489;28;41655;-73
2021/04/07 09:31:12;;;;;;;2.40;1.27;;;;;;;10.86;40.56;99009.41;5048992;28;43749;-73
2021/04/07 09:33:42;;;;;;;3.33;1.60;;;;;;;10.69;40.41;99005.09;5049248;28;42561;-73
2021/04/07 09:36:11;;;;;;;3.93;1.60;;;;;;;10.08;40.91;99007.84;5049454;28;40191;-73
2021/04/07 09:38:43;;;;;;;3.57;1.40;;;;;;;9.55;42.46;99002.97;5048902;28;41288;-72
2021/04/07 09:41:12;;;;;;;5.50;1.77;;;;;;;9.12;43.42;99007.16;5048694;28;42871;-72
2021/04/07 09:43:40;;;;;;;4.73;1.63;;;;;;;8.86;44.55;98990.91;5048791;28;42761;-72
2021/04/07 09:46:07;;;;;;;3.87;2.07;;;;;;;8.81;45.00;98974.44;5048652;28;39961;-73
2021/04/07 09:48:54;;;;;;;3.33;1.80;;;;;;;8.73;45.15;98989.00;5047112;28;41710;-73
2021/04/07 09:51:30;;;;;;;4.30;1.80;;;;;;;8.88;44.91;98991.69;5048847;28;42857;-73
2021/04/07 09:54:09;;;;;;;3.57;1.57;;;;;;;9.00;44.61;99001.59;5047746;28;41881;-72
2021/04/07 09:56:52;;;;;;;1.93;1.73;;;;;;;9.46;44.42;98977.91;5048171;28;39997;-71
2021/04/07 09:59:29;;;;;;;3.77;1.90;;;;;;;9.88;44.48;98989.66;5048565;28;41949;-71
2021/04/07 10:01:56;;;;;;;4.37;2.03;;;;;;;10.18;44.03;98993.19;5048636;28;42436;-73
2021/04/07 10:04:26;;;;;;;3.03;1.80;;;;;;;10.37;44.03;98998.25;5047842;28;42337;-72
2021/04/07 10:06:53;;;;;;;3.97;2.10;;;;;;;10.25;43.96;98997.19;5048562;28;40008;-73
2021/04/07 10:09:28;;;;;;;2.87;1.93;;;;;;;10.24;43.76;98998.13;5064415;28;41237;-74
2021/04/07 10:11:55;;;;;;;6.40;2.40;;;;;;;10.08;43.42;98978.75;5048766;28;43584;-73
2021/04/07 10:14:22;;;;;;;3.37;2.13;;;;;;;10.35;43.64;98978.97;5047862;28;41832;-73
2021/04/07 10:16:49;;;;;;;2.67;2.00;;;;;;;11.21;42.63;98995.75;5047896;28;40442;-74
2021/04/07 10:19:16;;;;;;;3.30;1.83;;;;;;;11.64;42.18;98994.69;5048574;28;41806;-73
2021/04/07 10:21:45;;;;;;;3.93;2.00;;;;;;;11.79;41.06;99017.63;5049826;28;42875;-72
2021/04/07 10:24:16;;;;;;;2.60;1.90;;;;;;;12.37;39.37;99015.56;5049177;28;42310;-71
2021/04/07 10:26:44;;;;;;;2.73;2.07;;;;;;;12.97;38.52;99030.97;5064611;28;39606;-72
2021/04/07 10:29:22;;;;;;;3.30;2.00;;;;;;;13.13;38.64;99021.78;5048173;28;45758;-72
2021/04/07 10:31:53;;;;;;;2.50;2.27;;;;;;;13.38;37.48;99028.06;5048582;28;43499;-72
2021/04/07 10:34:29;;;;;;;3.47;2.23;;;;;;;13.54;36.62;99036.66;5045983;28;42814;-72
2021/04/07 10:36:57;;;;;;;5.13;2.07;;;;;;;14.37;36.05;99033.13;5063779;28;40994;-72
2021/04/07 10:39:24;;;;;;;3.10;1.90;;;;;;;14.77;35.22;99031.94;5046433;28;42383;-72
2021/04/07 10:41:52;;;;;;;3.17;2.00;;;;;;;16.51;32.45;99054.38;5048441;28;44011;-73
2021/04/07 10:44:24;;;;;;;4.77;2.47;;;;;;;16.22;32.08;99054.09;5063681;28;41714;-72
2021/04/07 10:46:51;;;;;;;5.27;2.83;;;;;;;15.54;33.00;99046.31;5048076;28;40056;-72
2021/04/07 10:49:19;;;;;;;2.23;1.97;;;;;;;15.11;33.53;99044.38;5038807;28;41884;-72
2021/04/07 10:51:57;;;;;;;2.83;2.00;;;;;;;14.90;33.86;99046.88;5048533;28;43131;-71
2021/04/07 10:54:26;;;;;;;4.67;1.90;;;;;;;14.22;35.18;99033.41;5054440;28;43401;-73
2021/04/07 10:56:59;;;;;;;2.33;1.80;;;;;;;13.27;36.05;99028.84;5064459;28;40276;-71
2021/04/07 10:59:30;;;;;;;2.53;2.10;;;;;;;12.70;37.51;99023.06;5048052;28;43177;-72
2021/04/07 11:01:58;;;;;;;4.70;2.57;;;;;;;12.43;38.15;99016.03;5048585;28;42776;-72
2021/04/07 11:04:27;;;;;;;3.37;2.20;;;;;;;12.21;39.46;99002.50;5063219;28;42644;-73
2021/04/07 11:06:58;;;;;;;5.03;2.30;;;;;;;11.98;39.19;99005.81;5048177;28;42341;-73
2021/04/07 11:09:31;;;;;;;3.57;2.53;;;;;;;11.62;40.06;99001.91;5047122;28;41267;-73
2021/04/07 11:11:59;;;;;;;7.83;2.70;;;;;;;11.22;41.16;98998.31;5047925;28;43743;-74
2021/04/07 11:14:27;;;;;;;3.97;2.30;;;;;;;11.05;41.49;98985.25;5046982;28;42617;-74
2021/04/07 11:16:58;;;;;;;3.40;2.67;;;;;;;10.99;41.57;98991.78;5048137;28;40166;-75
2021/04/07 11:19:33;;;;;;;4.37;2.60;;;;;;;10.76;41.17;98989.69;5046879;28;41751;-72
2021/04/07 11:22:00;;;;;;;4.40;2.30;;;;;;;10.77;41.26;98986.94;5047492;28;44248;-74
2021/04/07 11:24:27;;;;;;;3.30;2.77;;;;;;;10.89;41.61;99000.38;5047372;28;42311;-77
2021/04/07 11:26:55;;;;;;;3.03;2.40;;;;;;;10.68;41.39;98981.38;5046704;28;39889;-76
2021/04/07 11:29:22;;;;;;;4.20;2.30;;;;;;;10.62;41.80;98987.91;5062927;28;41358;-75
2021/04/07 11:31:51;;;;;;;4.30;2.53;;;;;;;10.30;41.76;98995.09;5047081;28;43658;-74
2021/04/07 11:34:22;;;;;;;3.50;2.20;;;;;;;10.00;41.81;98988.94;5045936;28;42526;-73
2021/04/07 11:37:04;;;;;;;4.47;2.57;;;;;;;9.82;42.48;98987.34;5047946;28;40623;-75
2021/04/07 11:39:36;;;;;;;5.47;2.57;;;;;;;9.37;43.40;98994.28;5047170;28;41830;-71
2021/04/07 11:42:08;;;;;;;4.30;2.43;;;;;;;9.02;44.05;98998.88;5047076;28;42836;-73
2021/04/07 11:44:35;;;;;;;4.87;2.80;;;;;;;8.74;45.33;98988.06;5042730;28;41915;-72